KCUB/CUB METAR and TAF weather

Enter ICAO airport designator
Station Type Date Time Source
KCUB METAR 2022/01/28 05:53 UTC NOAA

KCUB 280553Z AUTO 00000KT 10SM CLR 02/M04 A3022 RMK AO2 SLP234 T00171044 10044 20011 58024


Station Type Date Time Source
KCUB Decoded METAR 2022/01/28 05:53 UTC NOAA

OWENS DOWNTOWN AIRPORT, SC, United States (KCUB) 33-58N 081-00W 56M
Jan 28, 2022 - 12:53 AM EST / 2022.01.28 0553 UTC
Wind: Calm:0
Visibility: 10 mile(s):0
Sky conditions: clear
Temperature: 35.1 F (1.7 C)
Dew Point: 24.1 F (-4.4 C)
Relative Humidity: 63%
Pressure (altimeter): 30.22 in. Hg (1023 hPa)
Pressure tendency: 0.07 inches (2.4 hPa) lower than three hours ago
ob: KCUB 280553Z AUTO 00000KT 10SM CLR 02/M04 A3022 RMK AO2 SLP234 T00171044 10044 20011 58024
cycle: 6

Station Type Date Time Source
KCUB TAF 2022/01/28 06:30 UTC NOAA

TAF KCUB 280528Z 2806/2906 VRB03KT P6SM BKN200
FM281600 26005KT P6SM BKN100
FM290000 29010G16KT 6SM -RA SCT012 BKN030

Example: see airport list